Time;durP1;ratioP1;P1;durP2;ratioP2;P2;SDS_P1;SDS_P2;PMS_P1;PMS_P2;Temp;Humidity;BMP_temperature;BMP_pressure;BME280_temperature;BME280_humidity;BME280_pressure;Samples;Min_cycle;Max_cycle;Signal;HPM_P1;HPM_P2
2022/12/26 00:01:59;;;;;;;37.70;24.40;;;;;;;-0.39;100.00;98220.66;107996;1267;70533;-66
2022/12/26 00:04:28;;;;;;;27.40;20.10;;;;;;;-0.37;100.00;98223.86;107991;1267;69460;-66
2022/12/26 00:07:17;;;;;;;60.30;37.30;;;;;;;-0.33;100.00;98224.64;107995;1265;69903;-64
2022/12/26 00:09:46;;;;;;;66.90;39.70;;;;;;;-0.33;100.00;98229.96;107978;1266;58924;-65
2022/12/26 00:12:14;;;;;;;50.30;31.90;;;;;;;-0.38;100.00;98244.09;108025;1267;58902;-65
2022/12/26 00:14:43;;;;;;;72.00;45.20;;;;;;;-0.41;100.00;98244.83;108038;1267;71197;-65
2022/12/26 00:17:12;;;;;;;67.70;39.50;;;;;;;-0.44;100.00;98249.48;107977;1265;68642;-65
2022/12/26 00:19:41;;;;;;;79.90;41.60;;;;;;;-0.46;100.00;98249.35;108019;1266;69229;-65
2022/12/26 00:22:11;;;;;;;;;;;;;;;-0.50;100.00;98251.66;108027;1261;58943;-65
2022/12/26 00:24:40;;;;;;;50.30;32.40;;;;;;;-0.58;100.00;98254.66;108037;1266;58877;-65
2022/12/26 00:27:09;;;;;;;60.10;35.30;;;;;;;-0.65;100.00;98251.86;107918;1267;71188;-65
2022/12/26 00:29:38;;;;;;;52.40;30.50;;;;;;;-0.70;100.00;98246.98;108014;1266;68990;-65
2022/12/26 00:32:07;;;;;;;45.00;28.80;;;;;;;-0.74;100.00;98245.84;108017;1266;68915;-65
2022/12/26 00:34:37;;;;;;;51.90;29.20;;;;;;;-0.79;100.00;98246.76;107991;1261;58913;-65
2022/12/26 00:37:06;;;;;;;32.60;21.20;;;;;;;-0.83;100.00;98247.49;107975;1263;58859;-64
2022/12/26 00:39:35;;;;;;;31.30;18.50;;;;;;;-0.84;100.00;98242.53;108012;1262;70591;-65
2022/12/26 00:42:04;;;;;;;44.20;27.60;;;;;;;-0.84;100.00;98244.27;108024;1267;68543;-65
2022/12/26 00:44:33;;;;;;;41.50;25.60;;;;;;;-0.84;100.00;98253.33;107981;1266;69300;-65
2022/12/26 00:47:02;;;;;;;37.00;24.20;;;;;;;-0.86;100.00;98260.54;107963;1267;58965;-65
2022/12/26 00:49:31;;;;;;;33.30;20.60;;;;;;;-0.92;100.00;98259.10;107994;1267;59403;-65
2022/12/26 00:52:20;;;;;;;38.90;21.60;;;;;;;-1.00;100.00;98260.73;107925;1264;71262;-65
2022/12/26 00:54:50;;;;;;;30.10;20.40;;;;;;;-1.06;100.00;98265.42;108010;1265;69165;-65
2022/12/26 00:57:19;;;;;;;35.90;20.10;;;;;;;-1.11;100.00;98269.42;108014;1266;69872;-65
2022/12/26 00:59:48;;;;;;;27.50;18.80;;;;;;;-1.14;100.00;98272.89;107952;1265;58951;-65
2022/12/26 01:05:09;;;;;;;27.60;17.70;;;;;;;-1.19;100.00;98272.11;108024;1267;70062;-65
2022/12/26 01:07:40;;;;;;;37.50;18.80;;;;;;;-1.21;100.00;98271.60;107976;1266;69822;-65
2022/12/26 01:10:30;;;;;;;39.00;22.50;;;;;;;-1.22;100.00;98267.67;108005;1263;69534;-64
2022/12/26 01:12:59;;;;;;;38.20;22.50;;;;;;;-1.22;100.00;98261.19;108051;1266;59738;-65
2022/12/26 01:15:29;;;;;;;55.20;27.80;;;;;;;-1.23;100.00;98255.56;108004;1267;58959;-65
2022/12/26 01:17:59;;;;;;;31.80;21.00;;;;;;;-1.28;100.00;98252.52;107981;1267;70707;-65
2022/12/26 01:20:29;;;;;;;42.00;22.40;;;;;;;-1.30;100.00;98247.94;108021;1267;68502;-63
2022/12/26 01:22:59;;;;;;;33.80;21.00;;;;;;;-1.29;100.00;98240.41;107992;1266;69864;-65
2022/12/26 01:25:28;;;;;;;35.90;21.00;;;;;;;-1.27;100.00;98228.40;107960;1265;58972;-66
2022/12/26 01:27:58;;;;;;;32.20;20.20;;;;;;;-1.26;100.00;98218.12;108007;1267;59369;-65
2022/12/26 01:30:27;;;;;;;;;;;;;;;-1.25;100.00;98211.10;107982;1269;70515;-66
2022/12/26 01:32:57;;;;;;;31.20;19.90;;;;;;;-1.23;100.00;98210.56;108006;1262;69824;-65
2022/12/26 01:35:26;;;;;;;30.40;19.20;;;;;;;-1.22;100.00;98212.95;107956;1264;69243;-65
2022/12/26 01:37:57;;;;;;;30.60;19.40;;;;;;;-1.21;100.00;98213.78;107984;1267;58902;-65
2022/12/26 01:40:26;;;;;;;55.40;23.70;;;;;;;-1.19;100.00;98207.62;108032;1267;58899;-65
2022/12/26 01:42:55;;;;;;;36.20;18.10;;;;;;;-1.18;100.00;98193.73;108040;1265;71185;-66
2022/12/26 01:45:28;;;;;;;31.60;19.80;;;;;;;-1.18;100.00;98192.02;108035;1267;69088;-65
2022/12/26 01:48:05;;;;;;;39.20;21.90;;;;;;;-1.18;100.00;98189.14;107961;1263;69165;-65
2022/12/26 01:50:59;;;;;;;39.00;23.90;;;;;;;-1.18;100.00;98189.48;107986;1266;58945;-65
2022/12/26 01:53:51;;;;;;;32.70;21.90;;;;;;;-1.18;100.00;98189.81;108038;1267;59297;-67
2022/12/26 01:56:31;;;;;;;27.60;18.80;;;;;;;-1.18;100.00;98192.89;108086;1267;70759;-66
2022/12/26 01:59:08;;;;;;;45.30;22.00;;;;;;;-1.16;100.00;98203.29;108084;1266;68694;-64
2022/12/26 02:01:41;;;;;;;28.10;17.20;;;;;;;-1.14;100.00;98211.14;108002;1267;70326;-66
2022/12/26 02:07:05;;;;;;;41.20;18.90;;;;;;;-1.10;100.00;98204.75;108022;1264;58898;-65
2022/12/26 02:09:35;;;;;;;137.50;34.70;;;;;;;-1.09;100.00;98196.36;107974;1266;71094;-65
2022/12/26 02:12:29;;;;;;;52.70;27.10;;;;;;;-1.13;100.00;98201.37;107953;1266;67655;-65
2022/12/26 02:15:13;;;;;;;59.90;27.80;;;;;;;-1.15;100.00;98205.50;107966;1267;69463;-65
2022/12/26 02:17:42;;;;;;;49.40;26.80;;;;;;;-1.16;100.00;98196.27;108004;1267;58962;-66
2022/12/26 02:20:25;;;;;;;40.50;24.80;;;;;;;-1.16;100.00;98187.88;107962;1267;58910;-65
2022/12/26 02:23:12;;;;;;;35.30;20.70;;;;;;;-1.16;100.00;98188.23;107970;1263;70078;-65
2022/12/26 02:26:18;;;;;;;57.70;23.40;;;;;;;-1.20;100.00;98193.79;108020;1267;69799;-65
2022/12/26 02:29:06;;;;;;;49.90;26.00;;;;;;;-1.30;100.00;98199.70;107982;1266;68608;-65
2022/12/26 02:31:58;;;;;;;34.30;22.80;;;;;;;-1.31;100.00;98199.54;107963;1267;58905;-65
2022/12/26 02:35:05;;;;;;;29.20;18.10;;;;;;;-1.28;100.00;98198.16;107955;1263;58943;-65
2022/12/26 02:37:53;;;;;;;31.10;17.60;;;;;;;-1.25;100.00;98206.66;107998;1263;70598;-66
2022/12/26 02:40:50;;;;;;;53.90;20.70;;;;;;;-1.23;100.00;98214.33;107974;1266;69178;-64
2022/12/26 02:43:29;;;;;;;30.80;16.80;;;;;;;-1.22;100.00;98217.56;107954;1267;69219;-66
2022/12/26 03:13:32;;;;;;;36.80;20.10;;;;;;;-1.28;100.00;98205.86;107937;1267;68468;-64
2022/12/26 03:19:05;;;;;;;29.10;16.60;;;;;;;-1.29;100.00;98184.48;107962;1266;58920;-66
2022/12/26 03:21:43;;;;;;;27.70;16.80;;;;;;;-1.29;100.00;98187.21;107983;1270;71141;-66
2022/12/26 03:24:16;;;;;;;37.50;19.10;;;;;;;-1.28;100.00;98186.70;107981;1262;68422;-65
2022/12/26 03:26:53;;;;;;;52.20;25.00;;;;;;;-1.31;100.00;98187.05;107977;1266;69381;-65
2022/12/26 03:32:11;;;;;;;34.40;20.60;;;;;;;-1.40;100.00;98195.89;107956;1266;58852;-65
2022/12/26 03:34:43;;;;;;;39.90;22.90;;;;;;;-1.41;100.00;98196.26;108018;1267;69655;-65
2022/12/26 03:37:54;;;;;;;40.60;22.30;;;;;;;-1.41;100.00;98191.31;107968;1267;69186;-65
2022/12/26 04:19:55;;;;;;;33.30;18.80;;;;;;;-1.79;100.00;98158.27;108025;1263;71055;-67
2022/12/26 04:44:09;;;;;;;35.00;22.20;;;;;;;-1.76;100.00;98200.26;107979;1267;58970;-65
2022/12/26 04:46:41;;;;;;;32.90;20.70;;;;;;;-1.73;100.00;98198.02;107961;1266;58820;-64
2022/12/26 04:52:05;;;;;;;31.10;16.10;;;;;;;-1.61;100.00;98203.86;107977;1267;68167;-65
2022/12/26 04:54:34;;;;;;;33.80;17.80;;;;;;;-1.56;100.00;98207.22;108037;1267;69352;-64
2022/12/26 04:57:04;;;;;;;38.50;19.20;;;;;;;-1.53;100.00;98209.23;108061;1266;58931;-64
2022/12/26 04:59:34;;;;;;;25.90;15.10;;;;;;;-1.51;100.00;98207.51;107999;1265;58878;-66
2022/12/26 05:10:28;;;;;;;28.80;17.60;;;;;;;-1.34;100.00;98218.05;107967;1265;58972;-64
2022/12/26 05:12:57;;;;;;;32.90;19.10;;;;;;;-1.30;100.00;98218.18;108009;1266;58954;-65
2022/12/26 05:28:40;;;;;;;;;;;;;;;-1.25;100.00;98215.05;108030;1265;70400;-65
2022/12/26 05:29:46;;;;;;;35.60;19.20;;;;;;;-1.38;100.00;98179.64;108007;1257;58978;-65
2022/12/26 05:35:04;;;;;;;35.90;20.70;;;;;;;-1.45;100.00;98189.64;107991;1267;68430;-64
2022/12/26 05:37:34;;;;;;;;;;;;;;;-1.47;100.00;98199.92;107991;1267;69255;-64
2022/12/26 05:40:04;;;;;;;37.30;21.70;;;;;;;-1.52;100.00;98198.79;108063;1266;58953;-65
2022/12/26 05:42:33;;;;;;;43.60;24.70;;;;;;;-1.55;100.00;98201.73;108020;1266;58920;-65
2022/12/26 05:45:03;;;;;;;40.10;23.30;;;;;;;-1.58;100.00;98199.71;107950;1267;70797;-65
2022/12/26 05:47:32;;;;;;;38.20;24.00;;;;;;;-1.59;100.00;98200.92;107987;1267;68298;-65
2022/12/26 05:50:01;;;;;;;36.60;21.90;;;;;;;-1.56;100.00;98204.66;108045;1267;69807;-64
2022/12/26 05:52:30;;;;;;;43.60;25.60;;;;;;;-1.52;100.00;98208.89;108004;1262;58958;-64
2022/12/26 05:55:00;;;;;;;44.80;24.20;;;;;;;-1.49;100.00;98212.76;108010;1267;58928;-65
2022/12/26 05:57:29;;;;;;;39.90;23.10;;;;;;;-1.47;100.00;98212.09;107999;1267;70589;-64
2022/12/26 05:59:58;;;;;;;45.30;27.40;;;;;;;-1.47;100.00;98216.02;107988;1267;70048;-65
2022/12/26 06:02:29;;;;;;;42.80;25.40;;;;;;;-1.50;100.00;98218.42;108013;1267;69881;-66
2022/12/26 06:04:58;;;;;;;51.00;26.40;;;;;;;-1.55;100.00;98220.02;107962;1267;58890;-65
2022/12/26 06:07:28;;;;;;;37.50;22.30;;;;;;;-1.62;100.00;98219.41;108016;1267;58984;-65
2022/12/26 06:09:57;;;;;;;41.80;24.50;;;;;;;-1.57;100.00;98223.46;108030;1267;70615;-64
2022/12/26 06:12:26;;;;;;;54.20;29.30;;;;;;;-1.38;100.00;98221.35;108000;1264;69641;-64
2022/12/26 06:14:55;;;;;;;48.60;28.60;;;;;;;-1.25;100.00;98221.20;107787;1267;69876;-65
2022/12/26 06:17:24;;;;;;;44.70;24.70;;;;;;;-1.25;100.00;98222.05;107937;1266;58964;-65
2022/12/26 06:19:53;;;;;;;44.10;26.00;;;;;;;-1.24;100.00;98220.51;108009;1266;58887;-65
2022/12/26 06:22:23;;;;;;;50.00;29.60;;;;;;;-1.20;100.00;98216.17;108006;1267;71215;-66
2022/12/26 06:24:52;;;;;;;46.50;24.90;;;;;;;-1.16;100.00;98210.13;107968;1267;68689;-67
2022/12/26 06:27:21;;;;;;;44.70;25.40;;;;;;;-1.04;100.00;98204.66;107979;1263;69878;-66
2022/12/26 06:29:49;;;;;;;42.80;24.70;;;;;;;-0.91;100.00;98195.08;107993;1263;58975;-66
2022/12/26 06:32:18;;;;;;;37.60;23.00;;;;;;;-0.89;100.00;98193.67;107994;1267;58935;-65
2022/12/26 06:34:47;;;;;;;30.70;18.20;;;;;;;-0.84;100.00;98189.32;107985;1267;69675;-66
2022/12/26 06:37:16;;;;;;;30.80;19.90;;;;;;;-0.79;100.00;98181.89;107956;1267;68423;-65
2022/12/26 06:39:45;;;;;;;37.60;25.10;;;;;;;-0.75;100.00;98178.73;107955;1267;68837;-66
2022/12/26 06:42:14;;;;;;;39.00;25.50;;;;;;;-0.73;100.00;98175.80;107978;1267;58954;-66
2022/12/26 06:44:43;;;;;;;39.00;26.10;;;;;;;-0.68;100.00;98177.27;108009;1267;58913;-66
2022/12/26 06:47:12;;;;;;;31.90;21.70;;;;;;;-0.64;100.00;98173.95;107963;1265;71166;-67
2022/12/26 06:49:40;;;;;;;31.60;20.50;;;;;;;-0.57;100.00;98173.51;107949;1263;69626;-67
2022/12/26 06:52:10;;;;;;;30.10;21.20;;;;;;;-0.50;100.00;98172.88;107924;1263;69220;-67
2022/12/26 06:54:39;;;;;;;31.60;21.50;;;;;;;-0.45;100.00;98170.73;107993;1263;58981;-66
2022/12/26 06:57:08;;;;;;;33.00;21.60;;;;;;;-0.42;100.00;98166.23;107992;1262;58983;-67
2022/12/26 06:59:37;;;;;;;28.00;19.80;;;;;;;-0.36;100.00;98164.59;108034;1263;71277;-67
2022/12/26 07:02:08;;;;;;;29.10;19.20;;;;;;;-0.31;100.00;98156.61;107972;1267;68624;-67
2022/12/26 07:04:37;;;;;;;31.40;20.50;;;;;;;-0.25;100.00;98155.82;107982;1264;70024;-66
2022/12/26 07:07:06;;;;;;;70.20;44.70;;;;;;;-0.21;100.00;98155.77;107989;1267;58936;-67
2022/12/26 07:09:35;;;;;;;67.30;37.80;;;;;;;-0.17;100.00;98153.97;108021;1267;58904;-64
2022/12/26 07:12:05;;;;;;;48.00;30.80;;;;;;;-0.12;100.00;98162.61;108042;1261;70448;-65
2022/12/26 07:14:33;;;;;;;41.30;30.60;;;;;;;-0.09;100.00;98159.30;107989;1262;70152;-66
2022/12/26 07:17:02;;;;;;;33.70;23.70;;;;;;;-0.04;100.00;98161.27;107979;1266;69381;-67
2022/12/26 07:19:31;;;;;;;46.70;30.70;;;;;;;0.03;100.00;98152.75;108019;1261;58941;-66
2022/12/26 07:21:59;;;;;;;51.00;34.40;;;;;;;0.07;100.00;98140.67;107985;1266;58882;-67
2022/12/26 07:24:28;;;;;;;51.80;36.90;;;;;;;0.11;100.00;98128.77;108022;1263;69873;-66
2022/12/26 07:26:57;;;;;;;49.20;32.80;;;;;;;0.12;100.00;98124.45;108001;1266;69468;-66
2022/12/26 07:29:26;;;;;;;38.00;25.40;;;;;;;0.19;100.00;98134.10;107959;1267;69985;-66
2022/12/26 07:31:56;;;;;;;36.40;25.80;;;;;;;0.26;100.00;98131.90;107961;1265;58904;-65
2022/12/26 07:34:25;;;;;;;;;;;;;;;0.31;100.00;98128.55;108014;1264;58941;-66
2022/12/26 07:37:00;;;;;;;30.80;21.00;;;;;;;0.32;100.00;98128.70;107956;1263;70227;-66
2022/12/26 07:39:29;;;;;;;28.50;19.80;;;;;;;0.37;100.00;98128.59;108004;1263;68540;-65
2022/12/26 07:41:58;;;;;;;32.70;22.00;;;;;;;0.48;100.00;98131.78;107976;1266;70189;-65
2022/12/26 07:44:29;;;;;;;29.80;21.10;;;;;;;0.59;100.00;98134.45;108034;1267;58948;-64
2022/12/26 07:46:59;;;;;;;29.30;20.10;;;;;;;0.70;100.00;98140.92;107943;1266;58913;-66
2022/12/26 07:49:27;;;;;;;36.20;25.40;;;;;;;0.82;100.00;98146.67;107964;1266;70392;-66
2022/12/26 07:51:56;;;;;;;19.90;16.10;;;;;;;0.93;100.00;98148.67;108037;1265;69813;-66
2022/12/26 07:54:27;;;;;;;20.20;14.10;;;;;;;1.08;100.00;98153.98;107980;1266;69732;-66
2022/12/26 07:56:56;;;;;;;24.70;16.90;;;;;;;1.23;100.00;98147.64;107997;1267;58925;-67
2022/12/26 07:59:44;;;;;;;46.80;37.90;;;;;;;1.34;100.00;98153.04;107974;1267;58883;-66
2022/12/26 08:02:13;;;;;;;58.30;42.40;;;;;;;1.34;100.00;98146.69;108028;1267;69802;-66
2022/12/26 08:04:42;;;;;;;51.00;37.30;;;;;;;1.24;100.00;98145.19;108016;1263;69624;-66
2022/12/26 08:07:11;;;;;;;43.20;33.10;;;;;;;1.04;100.00;98148.23;108027;1267;69284;-65
2022/12/26 08:09:41;;;;;;;39.70;30.10;;;;;;;0.90;100.00;98145.13;108003;1266;58956;-66
2022/12/26 08:12:11;;;;;;;35.40;27.60;;;;;;;0.85;100.00;98146.42;108006;1267;58900;-65
2022/12/26 08:14:40;;;;;;;35.80;24.00;;;;;;;0.85;100.00;98146.27;107816;1266;70592;-66
2022/12/26 08:17:09;;;;;;;35.00;25.40;;;;;;;0.90;100.00;98144.59;108020;1265;69028;-65
2022/12/26 08:19:38;;;;;;;29.40;21.40;;;;;;;0.95;100.00;98138.30;108011;1263;68737;-66
2022/12/26 08:22:06;;;;;;;28.60;19.30;;;;;;;1.05;100.00;98132.75;108018;1265;58981;-66
2022/12/26 08:24:35;;;;;;;34.20;25.60;;;;;;;1.14;100.00;98132.04;107997;1265;58870;-66
2022/12/26 08:27:04;;;;;;;38.20;27.40;;;;;;;1.22;100.00;98127.90;108007;1267;70933;-66
2022/12/26 08:29:33;;;;;;;34.60;23.40;;;;;;;1.31;100.00;98120.98;108042;1266;69886;-66
2022/12/26 08:32:01;;;;;;;26.80;19.40;;;;;;;1.41;100.00;98118.50;107883;1263;69255;-66
2022/12/26 08:34:34;;;;;;;31.70;22.30;;;;;;;1.48;100.00;98117.29;107981;1267;58974;-66
2022/12/26 08:37:03;;;;;;;34.40;23.90;;;;;;;1.56;100.00;98119.16;108043;1265;58921;-66
2022/12/26 08:39:31;;;;;;;26.10;20.10;;;;;;;1.65;100.00;98117.55;107940;1267;71176;-66
2022/12/26 08:42:00;;;;;;;25.80;18.70;;;;;;;1.74;100.00;98115.61;107974;1263;69639;-66
2022/12/26 08:44:28;;;;;;;24.30;18.50;;;;;;;1.82;100.00;98105.59;107995;1267;69158;-66
2022/12/26 08:46:57;;;;;;;24.90;18.40;;;;;;;1.93;100.00;98100.66;108017;1263;58975;-66
2022/12/26 08:49:26;;;;;;;28.70;22.90;;;;;;;2.03;100.00;98095.75;108007;1263;58919;-66
2022/12/26 08:51:55;;;;;;;33.00;25.80;;;;;;;2.14;100.00;98094.05;108008;1264;70196;-67
2022/12/26 08:54:23;;;;;;;30.80;24.00;;;;;;;2.28;100.00;98086.09;108001;1265;68663;-65
2022/12/26 08:56:52;;;;;;;30.30;23.70;;;;;;;2.45;100.00;98081.11;107958;1267;68730;-65
2022/12/26 08:59:21;;;;;;;31.00;24.20;;;;;;;2.62;100.00;98076.64;107964;1265;58952;-65
2022/12/26 09:01:49;;;;;;;29.60;22.20;;;;;;;2.78;100.00;98075.96;107764;1263;58945;-65
2022/12/26 09:04:18;;;;;;;32.90;24.50;;;;;;;2.98;100.00;98077.23;107974;1262;70567;-66
2022/12/26 09:06:47;;;;;;;33.60;27.00;;;;;;;3.17;100.00;98074.73;107973;1265;69467;-65
2022/12/26 09:09:16;;;;;;;29.90;22.60;;;;;;;3.34;100.00;98079.17;107950;1267;69895;-65
2022/12/26 09:11:44;;;;;;;27.40;20.20;;;;;;;3.48;100.00;98070.30;107951;1266;58970;-69
2022/12/26 09:14:13;;;;;;;24.20;18.70;;;;;;;3.64;100.00;98072.32;108001;1267;58887;-65
2022/12/26 09:16:45;;;;;;;20.10;16.20;;;;;;;3.80;100.00;98078.98;107973;1265;70183;-64
2022/12/26 09:19:20;;;;;;;25.00;17.10;;;;;;;3.94;100.00;98084.89;107981;1261;69087;-64
2022/12/26 09:22:49;;;;;;;21.40;15.80;;;;;;;4.05;100.00;98083.11;107999;1261;69894;-65
2022/12/26 09:24:38;;;;;;;21.10;18.00;;;;;;;4.21;100.00;98075.66;108000;1263;58900;-65
2022/12/26 09:27:07;;;;;;;21.80;17.00;;;;;;;4.34;100.00;98076.86;108024;1267;58887;-65
2022/12/26 09:29:37;;;;;;;24.00;20.50;;;;;;;4.44;100.00;98078.08;108021;1263;70628;-66
2022/12/26 09:32:06;;;;;;;27.00;19.30;;;;;;;4.52;100.00;98077.41;108041;1260;69799;-66
2022/12/26 09:34:34;;;;;;;26.70;20.70;;;;;;;4.63;100.00;98077.35;108012;1265;69465;-65
2022/12/26 09:37:03;;;;;;;23.50;19.20;;;;;;;4.76;100.00;98072.71;107995;1263;59002;-65
2022/12/26 09:39:32;;;;;;;22.80;18.90;;;;;;;4.85;100.00;98066.64;107976;1266;58861;-66
2022/12/26 09:42:12;;;;;;;21.10;17.10;;;;;;;4.94;100.00;98063.69;107960;1264;70436;-66
2022/12/26 09:44:53;;;;;;;22.20;18.30;;;;;;;4.95;99.39;98065.75;108040;1263;68671;-65
2022/12/26 09:47:41;;;;;;;24.20;19.50;;;;;;;4.92;98.91;98064.80;108012;1261;69941;-67
2022/12/26 09:50:15;;;;;;;22.00;19.10;;;;;;;4.93;98.88;98066.69;108010;1262;59401;-67
2022/12/26 09:52:48;;;;;;;25.80;19.70;;;;;;;4.94;99.52;98065.41;108016;1261;58950;-66
2022/12/26 09:55:29;;;;;;;27.90;22.60;;;;;;;4.98;99.98;98063.55;108030;1262;70411;-66
2022/12/26 09:58:21;;;;;;;29.70;24.20;;;;;;;4.92;99.44;98061.34;107990;1263;69929;-66
2022/12/26 10:01:08;;;;;;;27.40;20.20;;;;;;;4.92;99.96;98057.05;107849;1266;69956;-67
2022/12/26 10:03:53;;;;;;;26.30;19.80;;;;;;;4.97;100.00;98056.84;107977;1265;58939;-66
2022/12/26 10:06:36;;;;;;;27.10;19.20;;;;;;;5.09;99.94;98057.23;107980;1266;59259;-66
2022/12/26 10:09:46;;;;;;;22.20;19.40;;;;;;;5.22;99.36;98062.22;108020;1265;71066;-66
2022/12/26 10:12:35;;;;;;;22.00;17.10;;;;;;;5.40;98.86;98053.35;108057;1263;69919;-67
2022/12/26 10:15:24;;;;;;;27.30;22.70;;;;;;;5.56;99.82;98046.98;108000;1263;69898;-66
2022/12/26 10:18:07;;;;;;;24.60;21.70;;;;;;;5.67;99.47;98042.88;107999;1262;58971;-66
2022/12/26 10:20:58;;;;;;;29.40;23.50;;;;;;;5.77;97.70;98042.80;108010;1266;58895;-67
2022/12/26 10:23:39;;;;;;;21.50;17.10;;;;;;;5.90;95.39;98040.17;108024;1267;70544;-67
2022/12/26 10:26:12;;;;;;;20.90;17.00;;;;;;;6.01;94.82;98037.96;107982;1256;69083;-67
2022/12/26 10:28:52;;;;;;;20.50;15.90;;;;;;;6.10;94.70;98033.59;108001;1264;69752;-67
2022/12/26 10:31:35;;;;;;;21.30;16.80;;;;;;;6.15;93.45;98028.67;107983;1263;58972;-67
2022/12/26 10:34:07;;;;;;;16.60;13.40;;;;;;;6.22;92.15;98026.98;107980;1265;58938;-67
2022/12/26 10:36:44;;;;;;;17.20;12.70;;;;;;;6.32;95.00;98026.71;107989;1266;70579;-66
2022/12/26 10:39:16;;;;;;;16.20;13.30;;;;;;;6.37;94.31;98021.63;108010;1266;68730;-67
2022/12/26 10:41:49;;;;;;;16.10;13.50;;;;;;;6.42;93.11;98019.50;108005;1264;68530;-67
2022/12/26 10:44:19;;;;;;;16.40;12.70;;;;;;;6.50;92.61;98014.81;108004;1260;58953;-66
2022/12/26 10:47:27;;;;;;;19.30;13.10;;;;;;;6.59;92.66;98010.73;107996;1267;58889;-66
2022/12/26 10:50:00;;;;;;;17.70;13.20;;;;;;;6.70;92.04;98013.50;107968;1265;71367;-68
2022/12/26 10:52:33;;;;;;;22.20;16.10;;;;;;;6.78;93.09;98007.55;107939;1265;69688;-65
2022/12/26 10:55:03;;;;;;;18.70;14.30;;;;;;;6.82;94.11;98002.55;107994;1263;69370;-66
2022/12/26 10:57:54;;;;;;;18.80;15.30;;;;;;;6.88;91.20;98004.81;107956;1265;58968;-66
2022/12/26 11:00:26;;;;;;;14.40;11.80;;;;;;;7.00;92.20;98003.90;107989;1263;58969;-65
2022/12/26 11:03:02;;;;;;;18.70;14.30;;;;;;;7.07;92.50;97998.52;107969;1265;69635;-66
2022/12/26 11:05:34;;;;;;;23.10;17.70;;;;;;;7.14;92.72;98003.39;108004;1262;69263;-65
2022/12/26 11:08:48;;;;;;;24.60;19.10;;;;;;;7.20;91.55;97999.44;107989;1261;69222;-66
2022/12/26 11:11:16;;;;;;;20.90;15.50;;;;;;;7.27;89.17;98000.70;107975;1266;58932;-66
2022/12/26 11:13:51;;;;;;;15.50;11.90;;;;;;;7.35;89.77;97999.59;107991;1266;58921;-66
2022/12/26 11:16:27;;;;;;;10.50;8.50;;;;;;;7.35;87.22;98001.11;108044;1265;71197;-66
2022/12/26 11:18:57;;;;;;;6.90;5.60;;;;;;;7.39;87.00;97998.13;107983;1265;69733;-65
2022/12/26 11:21:29;;;;;;;10.20;5.60;;;;;;;7.48;87.28;98001.16;108027;1262;69336;-65
2022/12/26 11:24:18;;;;;;;6.70;4.70;;;;;;;7.58;86.74;97998.55;107968;1265;58972;-66
2022/12/26 11:26:47;;;;;;;7.40;5.50;;;;;;;7.70;85.37;97994.30;108008;1265;58895;-66
2022/12/26 11:29:19;;;;;;;9.30;5.50;;;;;;;7.76;82.71;97990.55;107998;1266;71079;-66
2022/12/26 11:32:00;;;;;;;5.80;4.50;;;;;;;7.83;84.42;97986.70;107962;1265;69797;-67
2022/12/26 11:34:36;;;;;;;6.70;4.60;;;;;;;7.90;83.70;97988.55;108010;1266;68291;-66
2022/12/26 11:37:07;;;;;;;6.60;5.90;;;;;;;8.00;82.30;97990.79;108010;1262;58947;-65
2022/12/26 11:39:37;;;;;;;5.60;4.30;;;;;;;8.14;80.81;97989.02;108007;1266;58997;-67
2022/12/26 11:42:19;;;;;;;5.00;4.10;;;;;;;8.25;81.22;97984.95;108054;1266;70416;-66
2022/12/26 11:44:51;;;;;;;6.40;4.10;;;;;;;8.30;81.09;97985.19;108063;1260;69323;-68
2022/12/26 11:47:27;;;;;;;5.60;4.60;;;;;;;8.35;80.86;97982.50;108035;1266;69774;-66
2022/12/26 11:50:03;;;;;;;5.30;4.20;;;;;;;8.36;80.05;97980.56;108023;1265;58922;-66
2022/12/26 11:52:39;;;;;;;5.20;4.20;;;;;;;8.33;78.08;97983.13;108049;1267;58960;-66
2022/12/26 11:55:23;;;;;;;5.70;4.70;;;;;;;8.37;80.59;97977.72;107990;1260;70550;-67
2022/12/26 11:57:55;;;;;;;5.80;4.30;;;;;;;8.43;78.34;97972.91;108034;1266;70194;-67
2022/12/26 12:00:28;;;;;;;6.00;4.50;;;;;;;8.54;76.38;97970.40;108019;1262;68584;-66
2022/12/26 12:02:57;;;;;;;6.40;4.70;;;;;;;8.63;75.92;97971.42;108036;1263;58947;-67
2022/12/26 12:05:50;;;;;;;5.30;4.00;;;;;;;8.87;78.04;97967.14;107993;1265;58959;-66
2022/12/26 12:08:26;;;;;;;6.00;3.80;;;;;;;9.23;77.95;97962.62;108003;1264;70585;-66
2022/12/26 12:11:23;;;;;;;4.40;3.50;;;;;;;9.46;73.22;97960.21;107964;1265;69088;-66
2022/12/26 12:14:11;;;;;;;6.20;4.50;;;;;;;9.70;72.49;97958.76;107967;1267;69911;-66
2022/12/26 12:17:09;;;;;;;7.40;4.20;;;;;;;9.89;73.36;97965.11;108011;1267;58952;-66
2022/12/26 12:19:44;;;;;;;6.40;4.00;;;;;;;10.09;69.18;97964.55;107997;1262;58886;-66
2022/12/26 12:22:13;;;;;;;5.10;3.90;;;;;;;10.20;67.59;97964.58;108011;1266;70384;-66
2022/12/26 12:24:47;;;;;;;6.50;4.00;;;;;;;10.31;70.04;97966.40;108026;1266;69220;-66
2022/12/26 12:27:27;;;;;;;5.40;3.50;;;;;;;10.35;67.47;97968.67;108020;1263;69840;-66
2022/12/26 12:30:05;;;;;;;5.50;3.80;;;;;;;10.37;65.40;97967.91;108026;1265;58969;-66
2022/12/26 12:32:49;;;;;;;7.70;5.00;;;;;;;10.34;64.09;97962.48;107994;1267;58889;-67
2022/12/26 12:35:58;;;;;;;5.90;3.60;;;;;;;10.31;67.34;97962.86;108023;1265;70569;-66
2022/12/26 12:39:21;;;;;;;6.10;3.90;;;;;;;10.15;68.52;97960.54;108008;1262;69802;-66
2022/12/26 12:41:59;;;;;;;6.60;4.20;;;;;;;10.03;67.15;97970.15;107573;1272;69960;-66
2022/12/26 12:44:35;;;;;;;4.70;3.30;;;;;;;9.99;68.19;97969.73;107974;1261;58954;-66
2022/12/26 12:47:41;;;;;;;4.80;3.80;;;;;;;9.95;67.91;97965.41;108000;1264;58814;-66
2022/12/26 12:50:28;;;;;;;5.90;4.50;;;;;;;9.88;66.37;97959.05;107981;1261;69603;-66
2022/12/26 12:53:21;;;;;;;6.70;5.10;;;;;;;9.88;66.51;97958.68;107978;1265;69055;-66
2022/12/26 12:56:41;;;;;;;6.50;5.10;;;;;;;9.77;65.66;97957.48;108005;1265;68476;-66
2022/12/26 12:59:30;;;;;;;7.00;5.40;;;;;;;9.70;64.74;97955.13;107387;1273;59035;-66
2022/12/26 13:02:03;;;;;;;6.30;5.30;;;;;;;9.73;65.49;97959.27;107341;1273;58951;-67
2022/12/26 13:04:47;;;;;;;7.00;5.10;;;;;;;9.85;64.83;97958.90;107857;1267;71299;-66
2022/12/26 13:07:19;;;;;;;7.40;5.30;;;;;;;10.05;64.02;97954.16;107980;1260;68223;-65
2022/12/26 13:09:53;;;;;;;7.30;5.20;;;;;;;10.57;63.84;97955.28;108000;1260;69236;-66
2022/12/26 13:12:30;;;;;;;6.80;5.60;;;;;;;11.42;65.84;97954.88;107957;1263;58961;-65
2022/12/26 13:15:08;;;;;;;7.70;5.60;;;;;;;11.98;64.54;97954.23;107960;1262;59290;-66
2022/12/26 13:18:01;;;;;;;7.20;5.60;;;;;;;12.56;62.87;97947.16;107976;1266;70397;-65
2022/12/26 13:21:11;;;;;;;6.80;5.30;;;;;;;12.72;56.86;97938.46;107990;1263;69065;-66
2022/12/26 13:26:41;;;;;;;6.70;5.60;;;;;;;12.97;55.76;97940.09;108009;1266;58977;-64
2022/12/26 13:29:25;;;;;;;6.10;5.20;;;;;;;12.82;57.54;97939.30;108019;1261;58867;-65
2022/12/26 13:31:53;;;;;;;5.80;4.60;;;;;;;12.57;57.37;97938.14;108009;1265;70372;-65
2022/12/26 13:34:22;;;;;;;8.80;6.20;;;;;;;12.29;57.49;97938.91;108004;1263;69070;-67
2022/12/26 13:36:54;;;;;;;8.80;6.50;;;;;;;12.00;57.44;97942.40;107830;1263;69302;-66
2022/12/26 13:39:26;;;;;;;9.50;7.40;;;;;;;11.59;58.76;97942.73;107979;1262;58954;-66
2022/12/26 13:44:48;;;;;;;12.40;9.30;;;;;;;10.93;61.26;97946.30;107996;1265;70198;-67
2022/12/26 13:47:36;;;;;;;15.50;11.90;;;;;;;10.70;61.67;97942.73;108106;1264;70088;-65
2022/12/26 13:50:44;;;;;;;19.60;14.50;;;;;;;10.34;62.25;97945.09;108032;1262;70232;-65
2022/12/26 13:53:23;;;;;;;15.70;11.90;;;;;;;10.07;64.10;97942.40;107795;1266;59031;-67
2022/12/26 13:56:01;;;;;;;15.30;12.60;;;;;;;10.01;64.06;97940.30;107955;1266;58849;-67
2022/12/26 13:58:33;;;;;;;13.10;11.00;;;;;;;9.96;64.22;97938.35;108001;1266;70070;-67
2022/12/26 14:01:26;;;;;;;18.00;14.60;;;;;;;9.90;64.12;97935.79;108010;1263;69697;-67